Kansai — JD3272 — position and weather

sailwx.info

Track history (hours):
 
Tides and Currents Weather Stations Pressure Air Temp Water Temp Dewpoint Dewpoint Depression Visibility Wind Speed Wind Dir Waves Ship Positions

Kansai

Last reported at 2016-Aug-30 14:33 UTC. Time now 2016-Aug-30 15:02 UTC.
Position N 34°42' E 135°15'.

Length 73 m; draft 4.2 m.

Type: Cargo ship. MMSI: 431003134.

Date/timePositionNaut miles runAvg speedWind from/ knotsBaromVisibWave heightAir tempDewpointWater temp
2016-Aug-30 14:33N 34°42' E 135°15'1 0.7
2016-Aug-30 13:33N 34°41' E 135°15'0 0.1
2016-Aug-30 12:33N 34°41' E 135°15'0 0.0
2016-Aug-30 11:33N 34°41' E 135°15'0 0.0
2016-Aug-30 10:33N 34°41' E 135°15'0 0.0
2016-Aug-30 09:33N 34°41' E 135°15'0 0.0
2016-Aug-30 08:33N 34°41' E 135°15'0 0.0
2016-Aug-30 07:33N 34°41' E 135°15'0 0.0
2016-Aug-30 06:33N 34°41' E 135°15'1 0.9
2016-Aug-30 05:33N 34°42' E 135°15'0 0.0
2016-Aug-30 04:33N 34°42' E 135°15'0 0.0
2016-Aug-30 03:32N 34°42' E 135°15'0 0.0
2016-Aug-30 02:32N 34°42' E 135°15'0 0.0
2016-Aug-30 01:33N 34°42' E 135°15'0 0.0
2016-Aug-30 00:33N 34°42' E 135°15'0 0.0
2016-Aug-29 23:33N 34°42' E 135°15'0 0.0
2016-Aug-29 22:33N 34°42' E 135°15'0 0.0
2016-Aug-29 21:33N 34°42' E 135°15'0 0.0
2016-Aug-29 20:33N 34°42' E 135°15'0 0.0
2016-Aug-29 19:33N 34°42' E 135°15'0 0.0
2016-Aug-29 18:33N 34°42' E 135°15'0 0.0
2016-Aug-29 17:33N 34°42' E 135°15'0 0.2
2016-Aug-29 16:33N 34°42' E 135°15'0 0.0
2016-Aug-29 15:33N 34°42' E 135°15'0 0.0
2016-Aug-29 14:33N 34°42' E 135°15'0 0.2
2016-Aug-29 13:33N 34°42' E 135°15'0 0.0
2016-Aug-29 12:33N 34°42' E 135°15'0 0.0
2016-Aug-29 11:33N 34°42' E 135°15'0 0.0
2016-Aug-29 10:33N 34°42' E 135°15'0 0.0
2016-Aug-29 09:33N 34°42' E 135°15'0 0.0
2016-Aug-29 08:33N 34°42' E 135°15'0 0.0
2016-Aug-29 07:33N 34°42' E 135°15'0 0.0
2016-Aug-29 06:33N 34°42' E 135°15'0 0.0
2016-Aug-29 05:33N 34°42' E 135°15'0 0.0
2016-Aug-29 04:33N 34°42' E 135°15'0 0.0
2016-Aug-29 03:33N 34°42' E 135°15'0 0.0
2016-Aug-29 02:32N 34°42' E 135°15'0 0.0
2016-Aug-29 01:33N 34°42' E 135°15'0 0.0
2016-Aug-29 00:33N 34°42' E 135°15'0 0.0
2016-Aug-28 23:33N 34°42' E 135°15'1 0.9
2016-Aug-28 22:33N 34°41' E 135°15'0 0.1
2016-Aug-28 21:33N 34°41' E 135°15'0 0.0
2016-Aug-28 20:33N 34°41' E 135°15'0 0.0
2016-Aug-28 19:33N 34°41' E 135°15'2 2.0
2016-Aug-28 18:33N 34°39' E 135°16'8 8.4
2016-Aug-28 17:33N 34°35' E 135°07'1110.9
2016-Aug-28 16:33N 34°37' E 134°54'4 0.1
2016-Aug-27 04:33N 34°40' E 134°50'1110.9
2016-Aug-27 03:33N 34°36' E 135°03'9 9.0
2016-Aug-27 02:33N 34°27' E 135°03'29 0.6
2016-Aug-25 00:28N 33°59' E 135°00'1210.4
2016-Aug-24 23:16N 34°11' E 134°59'911.4
2016-Aug-24 22:31N 34°20' E 134°59'1111.3
2016-Aug-24 21:33N 34°30' E 135°02'9 8.6
2016-Aug-24 20:31N 34°37' E 134°55'1 0.0
2016-Aug-24 03:29N 34°38' E 134°54'1011.1
2016-Aug-24 02:34N 34°32' E 135°05'  
Track history (hours):
 
Tides and Currents Weather Stations Pressure Air Temp Water Temp Dewpoint Dewpoint Depression Visibility Wind Speed Wind Dir Waves Ship Positions

Kansai

Last reported at 2016-Aug-30 14:33 UTC. Time now 2016-Aug-30 15:02 UTC.
Position N 34°42' E 135°15'.

Length 73 m; draft 4.2 m.

Type: Cargo ship. MMSI: 431003134.

Date/timePositionNaut miles runAvg speedWind from/ knotsBaromVisibWave heightAir tempDewpointWater temp
2016-Aug-30 14:33N 34°42' E 135°15'1 0.7
2016-Aug-30 13:33N 34°41' E 135°15'0 0.1
2016-Aug-30 12:33N 34°41' E 135°15'0 0.0
2016-Aug-30 11:33N 34°41' E 135°15'0 0.0
2016-Aug-30 10:33N 34°41' E 135°15'0 0.0
2016-Aug-30 09:33N 34°41' E 135°15'0 0.0
2016-Aug-30 08:33N 34°41' E 135°15'0 0.0
2016-Aug-30 07:33N 34°41' E 135°15'0 0.0
2016-Aug-30 06:33N 34°41' E 135°15'1 0.9
2016-Aug-30 05:33N 34°42' E 135°15'0 0.0
2016-Aug-30 04:33N 34°42' E 135°15'0 0.0
2016-Aug-30 03:32N 34°42' E 135°15'0 0.0
2016-Aug-30 02:32N 34°42' E 135°15'0 0.0
2016-Aug-30 01:33N 34°42' E 135°15'0 0.0
2016-Aug-30 00:33N 34°42' E 135°15'0 0.0
2016-Aug-29 23:33N 34°42' E 135°15'0 0.0
2016-Aug-29 22:33N 34°42' E 135°15'0 0.0
2016-Aug-29 21:33N 34°42' E 135°15'0 0.0
2016-Aug-29 20:33N 34°42' E 135°15'0 0.0
2016-Aug-29 19:33N 34°42' E 135°15'0 0.0
2016-Aug-29 18:33N 34°42' E 135°15'0 0.0
2016-Aug-29 17:33N 34°42' E 135°15'0 0.2
2016-Aug-29 16:33N 34°42' E 135°15'0 0.0
2016-Aug-29 15:33N 34°42' E 135°15'0 0.0
2016-Aug-29 14:33N 34°42' E 135°15'0 0.2
2016-Aug-29 13:33N 34°42' E 135°15'0 0.0
2016-Aug-29 12:33N 34°42' E 135°15'0 0.0
2016-Aug-29 11:33N 34°42' E 135°15'0 0.0
2016-Aug-29 10:33N 34°42' E 135°15'0 0.0
2016-Aug-29 09:33N 34°42' E 135°15'0 0.0
2016-Aug-29 08:33N 34°42' E 135°15'0 0.0
2016-Aug-29 07:33N 34°42' E 135°15'0 0.0
2016-Aug-29 06:33N 34°42' E 135°15'0 0.0
2016-Aug-29 05:33N 34°42' E 135°15'0 0.0
2016-Aug-29 04:33N 34°42' E 135°15'0 0.0
2016-Aug-29 03:33N 34°42' E 135°15'0 0.0
2016-Aug-29 02:32N 34°42' E 135°15'0 0.0
2016-Aug-29 01:33N 34°42' E 135°15'0 0.0
2016-Aug-29 00:33N 34°42' E 135°15'0 0.0
2016-Aug-28 23:33N 34°42' E 135°15'1 0.9
2016-Aug-28 22:33N 34°41' E 135°15'0 0.1
2016-Aug-28 21:33N 34°41' E 135°15'0 0.0
2016-Aug-28 20:33N 34°41' E 135°15'0 0.0
2016-Aug-28 19:33N 34°41' E 135°15'2 2.0
2016-Aug-28 18:33N 34°39' E 135°16'8 8.4
2016-Aug-28 17:33N 34°35' E 135°07'1110.9
2016-Aug-28 16:33N 34°37' E 134°54'4 0.1
2016-Aug-27 04:33N 34°40' E 134°50'1110.9
2016-Aug-27 03:33N 34°36' E 135°03'9 9.0
2016-Aug-27 02:33N 34°27' E 135°03'29 0.6
2016-Aug-25 00:28N 33°59' E 135°00'1210.4
2016-Aug-24 23:16N 34°11' E 134°59'911.4
2016-Aug-24 22:31N 34°20' E 134°59'1111.3
2016-Aug-24 21:33N 34°30' E 135°02'9 8.6
2016-Aug-24 20:31N 34°37' E 134°55'1 0.0
2016-Aug-24 03:29N 34°38' E 134°54'1011.1
2016-Aug-24 02:34N 34°32' E 135°05'  

Dump ship's entire track history